Time;durP1;ratioP1;P1;durP2;ratioP2;P2;SDS_P1;SDS_P2;PMS_P1;PMS_P2;Temp;Humidity;BMP_temperature;BMP_pressure;BME280_temperature;BME280_humidity;BME280_pressure;Samples;Min_cycle;Max_cycle;Signal;HPM_P1;HPM_P2
2024/04/10 00:01:00;;;;;;;11.98;4.47;;;;;;;;;;5461781;26;25045;-65
2024/04/10 00:03:26;;;;;;;12.93;4.43;;;;;;;;;;5454980;26;25096;-67
2024/04/10 00:05:58;;;;;;;14.10;4.03;;;;;;;;;;5468541;26;25108;-65
2024/04/10 00:08:25;;;;;;;12.30;4.10;;;;;;;;;;5474452;25;25055;-65
2024/04/10 00:10:51;;;;;;;20.38;4.50;;;;;;;;;;5454779;26;25057;-65
2024/04/10 00:13:18;;;;;;;16.02;4.40;;;;;;;;;;5462267;26;25125;-65
2024/04/10 00:15:44;;;;;;;12.45;4.28;;;;;;;;;;5451222;26;25053;-65
2024/04/10 00:18:10;;;;;;;15.93;3.83;;;;;;;;;;5449058;26;25058;-66
2024/04/10 00:20:36;;;;;;;16.98;4.68;;;;;;;;;;5443166;26;25043;-67
2024/04/10 00:23:05;;;;;;;13.13;3.92;;;;;;;;;;5446461;26;25048;-63
2024/04/10 00:25:34;;;;;;;12.15;3.63;;;;;;;;;;5462866;26;25043;-66
2024/04/10 00:28:00;;;;;;;11.30;3.40;;;;;;;;;;5459924;26;25120;-66
2024/04/10 00:30:26;;;;;;;13.88;3.85;;;;;;;;;;5454453;26;25041;-64
2024/04/10 00:32:52;;;;;;;16.33;4.43;;;;;;;;;;5461571;26;25049;-66
2024/04/10 00:35:18;;;;;;;14.40;4.22;;;;;;;;;;5463375;26;25056;-66
2024/04/10 00:37:45;;;;;;;14.52;4.57;;;;;;;;;;5459390;26;25039;-65
2024/04/10 00:40:11;;;;;;;11.50;3.50;;;;;;;;;;5454354;26;25044;-64
2024/04/10 00:42:37;;;;;;;14.60;3.83;;;;;;;;;;5453269;26;25139;-64
2024/04/10 00:45:03;;;;;;;20.08;4.68;;;;;;;;;;5459433;26;25058;-64
2024/04/10 00:47:29;;;;;;;14.55;3.58;;;;;;;;;;5451109;26;25053;-67
2024/04/10 00:49:56;;;;;;;13.98;4.10;;;;;;;;;;5462965;26;25096;-65
2024/04/10 00:52:23;;;;;;;14.13;3.60;;;;;;;;;;5458113;26;25059;-64
2024/04/10 00:54:49;;;;;;;22.80;5.05;;;;;;;;;;5460903;26;25040;-66
2024/04/10 00:57:15;;;;;;;11.73;3.95;;;;;;;;;;5452901;25;25060;-65
2024/04/10 00:59:41;;;;;;;13.75;4.07;;;;;;;;;;5459705;26;25111;-64
2024/04/10 01:02:07;;;;;;;12.27;3.50;;;;;;;;;;5445528;26;25107;-65
2024/04/10 01:04:34;;;;;;;11.50;3.55;;;;;;;;;;5455010;26;25064;-66
2024/04/10 01:07:00;;;;;;;11.88;4.25;;;;;;;;;;5452263;26;25086;-65
2024/04/10 01:09:26;;;;;;;11.88;3.72;;;;;;;;;;5448676;26;25102;-64
2024/04/10 01:11:52;;;;;;;11.73;3.83;;;;;;;;;;5462107;26;25043;-65
2024/04/10 01:14:18;;;;;;;16.63;3.95;;;;;;;;;;5450627;26;25041;-65
2024/04/10 01:16:44;;;;;;;13.75;4.25;;;;;;;;;;5452381;26;25043;-67
2024/04/10 01:19:10;;;;;;;17.48;4.07;;;;;;;;;;5449827;26;25057;-63
2024/04/10 01:21:36;;;;;;;15.52;4.13;;;;;;;;;;5442061;26;25061;-65
2024/04/10 01:24:02;;;;;;;16.25;4.72;;;;;;;;;;5458706;26;25071;-66
2024/04/10 01:26:28;;;;;;;16.40;4.53;;;;;;;;;;5456698;26;25032;-65
2024/04/10 01:28:54;;;;;;;14.80;4.32;;;;;;;;;;5452729;26;25041;-64
2024/04/10 01:31:20;;;;;;;17.33;4.53;;;;;;;;;;5448252;26;25040;-66
2024/04/10 01:33:46;;;;;;;20.02;4.70;;;;;;;;;;5461576;26;25092;-64
2024/04/10 01:36:12;;;;;;;13.30;4.03;;;;;;;;;;5445859;26;25134;-65
2024/04/10 01:38:40;;;;;;;17.45;4.70;;;;;;;;;;5459827;26;25132;-64
2024/04/10 01:41:07;;;;;;;13.35;3.88;;;;;;;;;;5456448;26;25049;-65
2024/04/10 01:43:33;;;;;;;20.20;5.53;;;;;;;;;;5467867;26;25071;-66
2024/04/10 01:45:59;;;;;;;14.63;4.43;;;;;;;;;;5459576;26;25134;-64
2024/04/10 01:48:25;;;;;;;19.42;5.53;;;;;;;;;;5451698;26;25046;-65
2024/04/10 01:50:51;;;;;;;20.88;5.18;;;;;;;;;;5447293;26;25063;-67
2024/04/10 01:53:18;;;;;;;20.00;5.18;;;;;;;;;;5497178;26;25114;-65
2024/04/10 01:55:44;;;;;;;20.55;5.45;;;;;;;;;;5456998;26;25049;-64
2024/04/10 01:58:11;;;;;;;15.63;4.05;;;;;;;;;;5495707;26;25128;-64
2024/04/10 02:00:37;;;;;;;14.07;4.25;;;;;;;;;;5452491;26;25030;-64
2024/04/10 02:03:03;;;;;;;21.25;4.63;;;;;;;;;;5450324;26;25306;-64
2024/04/10 02:05:29;;;;;;;18.27;5.05;;;;;;;;;;5464333;26;25058;-65
2024/04/10 02:07:55;;;;;;;16.25;4.40;;;;;;;;;;5455713;26;25099;-65
2024/04/10 02:10:21;;;;;;;13.95;4.28;;;;;;;;;;5455854;26;25097;-64
2024/04/10 02:12:47;;;;;;;20.20;4.50;;;;;;;;;;5448206;26;25048;-64
2024/04/10 02:15:13;;;;;;;16.67;4.72;;;;;;;;;;5466280;26;25048;-63
2024/04/10 02:17:39;;;;;;;17.08;5.10;;;;;;;;;;5449858;26;25051;-66
2024/04/10 02:20:07;;;;;;;16.95;4.57;;;;;;;;;;5443386;26;25072;-65
2024/04/10 02:22:33;;;;;;;17.77;5.10;;;;;;;;;;5459925;26;25039;-64
2024/04/10 02:24:59;;;;;;;16.10;5.03;;;;;;;;;;5465644;26;25066;-65
2024/04/10 02:27:25;;;;;;;16.02;4.55;;;;;;;;;;5451899;26;25023;-66
2024/04/10 02:29:51;;;;;;;16.40;3.75;;;;;;;;;;5451710;26;25041;-64
2024/04/10 02:32:17;;;;;;;18.73;4.70;;;;;;;;;;5444507;26;25063;-66
2024/04/10 02:34:44;;;;;;;14.65;4.25;;;;;;;;;;5457631;26;25043;-63
2024/04/10 02:37:10;;;;;;;16.83;4.30;;;;;;;;;;5451531;26;25147;-64
2024/04/10 02:39:38;;;;;;;12.63;3.90;;;;;;;;;;5454738;26;25050;-64
2024/04/10 02:42:04;;;;;;;21.20;4.90;;;;;;;;;;5465385;26;25056;-64
2024/04/10 02:44:30;;;;;;;17.30;4.78;;;;;;;;;;5457065;26;25047;-64
2024/04/10 02:46:56;;;;;;;11.80;3.92;;;;;;;;;;5451050;26;25091;-65
2024/04/10 02:49:22;;;;;;;26.75;4.53;;;;;;;;;;5447768;26;25060;-64
2024/04/10 02:51:48;;;;;;;17.50;4.25;;;;;;;;;;5448829;26;25139;-65
2024/04/10 02:54:14;;;;;;;22.30;3.78;;;;;;;;;;5444536;26;25097;-65
2024/04/10 02:56:40;;;;;;;16.23;4.03;;;;;;;;;;5453559;26;25060;-65
2024/04/10 02:59:07;;;;;;;13.80;3.63;;;;;;;;;;5455011;26;25125;-65
2024/04/10 03:01:34;;;;;;;15.10;3.90;;;;;;;;;;5461867;26;25064;-66
2024/04/10 03:04:01;;;;;;;19.83;3.60;;;;;;;;;;5455736;26;25046;-64
2024/04/10 03:06:27;;;;;;;17.55;4.75;;;;;;;;;;5446528;26;25052;-65
2024/04/10 03:08:54;;;;;;;16.23;4.50;;;;;;;;;;5450751;26;25058;-64
2024/04/10 03:11:20;;;;;;;13.82;4.28;;;;;;;;;;5448498;26;25055;-64
2024/04/10 03:13:46;;;;;;;16.20;4.30;;;;;;;;;;5462439;26;25050;-65
2024/04/10 03:16:12;;;;;;;19.10;4.60;;;;;;;;;;5461418;26;25151;-65
2024/04/10 03:18:38;;;;;;;19.67;4.93;;;;;;;;;;5459899;26;25048;-64
2024/04/10 03:21:04;;;;;;;18.45;4.80;;;;;;;;;;5447973;26;25081;-66
2024/04/10 03:23:30;;;;;;;17.85;3.20;;;;;;;;;;5459119;26;25049;-64
2024/04/10 03:26:02;;;;;;;15.60;4.10;;;;;;;;;;5468595;26;25053;-64
2024/04/10 03:28:28;;;;;;;18.55;3.85;;;;;;;;;;5468023;26;25045;-64
2024/04/10 03:30:54;;;;;;;11.45;3.88;;;;;;;;;;5458670;26;25032;-64
2024/04/10 03:33:22;;;;;;;16.52;3.85;;;;;;;;;;5448849;26;25059;-64
2024/04/10 03:35:48;;;;;;;18.98;3.35;;;;;;;;;;5457653;26;25083;-65
2024/04/10 03:38:14;;;;;;;21.23;4.00;;;;;;;;;;5459073;26;25178;-64
2024/04/10 03:40:41;;;;;;;16.23;4.65;;;;;;;;;;5459605;26;25116;-64
2024/04/10 03:43:08;;;;;;;17.98;3.75;;;;;;;;;;5456189;26;25052;-64
2024/04/10 03:45:35;;;;;;;13.50;3.53;;;;;;;;;;5464943;26;25048;-64
2024/04/10 03:48:00;;;;;;;20.77;4.50;;;;;;;;;;5469479;26;25054;-64
2024/04/10 03:50:26;;;;;;;10.75;3.70;;;;;;;;;;5458134;26;25046;-65
2024/04/10 03:52:52;;;;;;;17.15;3.78;;;;;;;;;;5469223;26;25061;-64
2024/04/10 03:55:18;;;;;;;14.40;4.05;;;;;;;;;;5466520;26;25122;-64
2024/04/10 03:57:44;;;;;;;17.95;4.05;;;;;;;;;;5475345;26;25053;-62
2024/04/10 04:00:10;;;;;;;20.95;4.57;;;;;;;;;;5453579;26;25042;-64
2024/04/10 04:02:36;;;;;;;12.23;4.00;;;;;;;;;;5462188;26;25084;-66
2024/04/10 04:05:03;;;;;;;20.33;4.85;;;;;;;;;;5458743;26;25060;-64
2024/04/10 04:07:29;;;;;;;24.15;4.43;;;;;;;;;;5453115;26;25136;-64
2024/04/10 04:09:55;;;;;;;17.20;3.67;;;;;;;;;;5470656;26;25076;-65
2024/04/10 04:12:21;;;;;;;14.45;4.38;;;;;;;;;;5471576;26;25128;-66
2024/04/10 04:14:47;;;;;;;18.73;4.43;;;;;;;;;;5459780;26;25051;-63
2024/04/10 04:17:13;;;;;;;19.05;5.22;;;;;;;;;;5458529;26;25058;-64
2024/04/10 04:19:39;;;;;;;21.90;4.22;;;;;;;;;;5446393;26;25040;-65
2024/04/10 04:22:06;;;;;;;19.70;4.60;;;;;;;;;;5458257;26;25029;-63
2024/04/10 04:24:32;;;;;;;17.55;4.68;;;;;;;;;;5447441;26;25028;-63
2024/04/10 04:26:58;;;;;;;12.10;4.18;;;;;;;;;;5450231;26;25063;-65
2024/04/10 04:29:24;;;;;;;16.83;4.43;;;;;;;;;;5453004;25;25130;-64
2024/04/10 04:31:50;;;;;;;23.92;5.03;;;;;;;;;;5456212;26;25116;-64
2024/04/10 04:34:16;;;;;;;10.70;4.57;;;;;;;;;;5454273;26;25061;-64
2024/04/10 04:36:43;;;;;;;13.70;4.40;;;;;;;;;;5461974;26;25156;-66
2024/04/10 04:39:09;;;;;;;16.83;4.50;;;;;;;;;;5500073;26;25043;-65
2024/04/10 04:41:35;;;;;;;14.57;3.95;;;;;;;;;;5462530;26;25049;-63
2024/04/10 04:44:02;;;;;;;13.95;4.20;;;;;;;;;;5458414;26;25035;-65
2024/04/10 04:46:29;;;;;;;20.00;4.45;;;;;;;;;;5451455;26;25045;-65
2024/04/10 04:48:55;;;;;;;13.57;4.05;;;;;;;;;;5464566;26;25152;-64
2024/04/10 04:51:21;;;;;;;11.63;4.72;;;;;;;;;;5454778;26;25036;-64
2024/04/10 04:53:47;;;;;;;18.58;3.92;;;;;;;;;;5475776;26;25070;-64
2024/04/10 04:56:13;;;;;;;15.85;4.78;;;;;;;;;;5461171;26;25055;-65
2024/04/10 04:58:39;;;;;;;22.23;4.85;;;;;;;;;;5457936;26;25082;-64
2024/04/10 05:01:07;;;;;;;14.50;4.22;;;;;;;;;;5457846;26;25044;-64
2024/04/10 05:06:18;;;;;;;12.45;3.90;;;;;;;;;;5468602;26;25080;-65
2024/04/10 05:08:44;;;;;;;17.13;4.30;;;;;;;;;;5473354;26;25038;-67
2024/04/10 05:11:10;;;;;;;23.20;4.38;;;;;;;;;;5458639;25;25137;-63
2024/04/10 05:13:36;;;;;;;16.95;3.78;;;;;;;;;;5456492;26;25045;-64
2024/04/10 05:16:03;;;;;;;20.00;5.00;;;;;;;;;;5448762;26;25040;-65
2024/04/10 05:18:29;;;;;;;24.10;3.97;;;;;;;;;;5450498;26;25144;-66
2024/04/10 05:20:55;;;;;;;29.42;4.63;;;;;;;;;;5449308;26;25055;-63
2024/04/10 05:23:21;;;;;;;22.20;4.32;;;;;;;;;;5453566;26;25077;-66
2024/04/10 05:25:49;;;;;;;16.08;4.40;;;;;;;;;;5487052;26;25023;-65
2024/04/10 05:28:15;;;;;;;17.85;4.80;;;;;;;;;;5463387;26;25053;-64
2024/04/10 05:30:41;;;;;;;16.05;3.85;;;;;;;;;;5457243;26;25125;-63
2024/04/10 05:33:07;;;;;;;20.45;4.70;;;;;;;;;;5468588;26;25039;-66
2024/04/10 05:35:33;;;;;;;16.55;3.40;;;;;;;;;;5499510;26;25044;-64
2024/04/10 05:37:59;;;;;;;18.25;4.80;;;;;;;;;;5454399;26;25052;-64
2024/04/10 05:40:25;;;;;;;15.82;3.35;;;;;;;;;;5466400;26;25034;-65
2024/04/10 05:42:52;;;;;;;15.52;4.15;;;;;;;;;;5468164;26;25071;-64
2024/04/10 05:45:18;;;;;;;22.55;4.03;;;;;;;;;;5467072;26;25029;-64
2024/04/10 05:47:51;;;;;;;21.15;4.88;;;;;;;;;;5471749;26;25051;-65
2024/04/10 05:50:17;;;;;;;16.80;4.35;;;;;;;;;;5472166;26;25040;-66
2024/04/10 05:52:43;;;;;;;18.05;3.60;;;;;;;;;;5458311;26;25045;-63
2024/04/10 05:55:10;;;;;;;21.95;5.38;;;;;;;;;;5468256;26;25113;-65
2024/04/10 05:57:36;;;;;;;16.80;3.72;;;;;;;;;;5459644;26;25113;-64
2024/04/10 06:00:03;;;;;;;21.73;3.60;;;;;;;;;;5464358;26;25113;-66
2024/04/10 06:02:30;;;;;;;17.30;3.42;;;;;;;;;;5452033;26;25071;-64
2024/04/10 06:05:00;;;;;;;18.38;3.63;;;;;;;;;;5462186;26;25053;-64
2024/04/10 06:07:26;;;;;;;21.65;3.55;;;;;;;;;;5472785;26;25038;-64
2024/04/10 06:09:52;;;;;;;15.57;4.13;;;;;;;;;;5464476;26;25047;-64
2024/04/10 06:12:18;;;;;;;19.77;3.65;;;;;;;;;;5463670;26;25046;-64
2024/04/10 06:14:44;;;;;;;15.00;3.97;;;;;;;;;;5460360;26;25071;-65
2024/04/10 06:17:10;;;;;;;17.50;4.85;;;;;;;;;;5458322;26;25112;-63
2024/04/10 06:19:36;;;;;;;21.30;3.97;;;;;;;;;;5466853;26;25041;-64
2024/04/10 06:22:02;;;;;;;14.35;4.22;;;;;;;;;;5461024;26;25058;-66
2024/04/10 06:24:29;;;;;;;16.40;4.07;;;;;;;;;;5458395;25;25055;-64
2024/04/10 06:26:55;;;;;;;16.25;3.67;;;;;;;;;;5454462;26;25038;-64
2024/04/10 06:29:21;;;;;;;17.15;4.20;;;;;;;;;;5506543;26;25114;-65
2024/04/10 06:31:47;;;;;;;16.83;4.47;;;;;;;;;;5448029;26;25066;-64
2024/04/10 06:34:13;;;;;;;14.63;4.28;;;;;;;;;;5472328;26;25038;-63
2024/04/10 06:36:39;;;;;;;19.52;5.35;;;;;;;;;;5449384;26;25060;-64
2024/04/10 06:39:07;;;;;;;10.70;3.03;;;;;;;;;;5465238;26;25056;-64
2024/04/10 06:41:33;;;;;;;19.70;3.92;;;;;;;;;;5461386;26;25052;-65
2024/04/10 06:43:59;;;;;;;16.10;3.75;;;;;;;;;;5455688;26;24999;-65
2024/04/10 06:46:25;;;;;;;14.68;3.67;;;;;;;;;;5463204;26;25062;-64
2024/04/10 06:48:51;;;;;;;14.90;3.20;;;;;;;;;;5461417;26;25054;-67
2024/04/10 06:51:16;;;;;;;21.88;3.92;;;;;;;;;;5461293;26;25070;-64
2024/04/10 06:53:42;;;;;;;15.30;3.53;;;;;;;;;;5465662;26;25070;-65
2024/04/10 06:56:09;;;;;;;16.40;4.15;;;;;;;;;;5467449;26;25045;-63
2024/04/10 06:58:39;;;;;;;17.83;4.15;;;;;;;;;;5467321;26;25090;-64
2024/04/10 07:01:06;;;;;;;19.35;4.40;;;;;;;;;;5454808;26;25056;-64
2024/04/10 07:03:33;;;;;;;21.27;3.63;;;;;;;;;;5466747;26;25072;-64
2024/04/10 07:06:12;;;;;;;15.55;2.85;;;;;;;;;;5473920;26;25079;-66
2024/04/10 07:08:39;;;;;;;18.20;3.83;;;;;;;;;;5458947;26;25082;-64
2024/04/10 07:11:06;;;;;;;13.05;3.58;;;;;;;;;;5507860;26;25060;-64
2024/04/10 07:13:34;;;;;;;12.52;3.20;;;;;;;;;;5458861;26;25074;-66
2024/04/10 07:16:01;;;;;;;14.48;3.05;;;;;;;;;;5469689;26;25052;-65
2024/04/10 07:18:28;;;;;;;14.48;3.03;;;;;;;;;;5472315;26;25044;-64
2024/04/10 07:21:01;;;;;;;13.80;3.05;;;;;;;;;;5469730;26;25077;-64
2024/04/10 07:23:27;;;;;;;18.70;3.40;;;;;;;;;;5459966;26;25049;-64
2024/04/10 07:25:53;;;;;;;16.83;4.20;;;;;;;;;;5447323;26;25098;-65
2024/04/10 07:28:19;;;;;;;17.38;3.47;;;;;;;;;;5464045;26;25053;-66
2024/04/10 07:30:49;;;;;;;14.93;3.65;;;;;;;;;;5454380;26;25046;-65
2024/04/10 07:33:15;;;;;;;14.05;2.53;;;;;;;;;;5458444;26;25108;-63
2024/04/10 07:35:41;;;;;;;17.48;3.00;;;;;;;;;;5456934;26;25068;-64
2024/04/10 07:38:07;;;;;;;11.70;2.70;;;;;;;;;;5452394;26;25025;-64
2024/04/10 07:40:33;;;;;;;21.27;3.63;;;;;;;;;;5460829;26;25051;-67
2024/04/10 07:43:00;;;;;;;14.63;3.05;;;;;;;;;;5461514;26;25047;-65
2024/04/10 07:45:29;;;;;;;14.57;3.28;;;;;;;;;;5444996;26;25094;-65
2024/04/10 07:47:55;;;;;;;18.08;3.08;;;;;;;;;;5445571;26;25049;-65
2024/04/10 07:50:21;;;;;;;12.32;2.70;;;;;;;;;;5457443;26;25054;-66
2024/04/10 07:52:47;;;;;;;22.98;3.78;;;;;;;;;;5453783;25;25058;-65
2024/04/10 07:55:13;;;;;;;13.30;2.95;;;;;;;;;;5458568;26;25044;-64
2024/04/10 07:57:40;;;;;;;12.48;3.20;;;;;;;;;;5457590;26;25058;-66
2024/04/10 08:00:09;;;;;;;14.10;3.15;;;;;;;;;;5458935;25;25060;-64
2024/04/10 08:02:37;;;;;;;11.70;3.17;;;;;;;;;;5458430;26;25062;-65
2024/04/10 08:05:03;;;;;;;9.98;2.50;;;;;;;;;;5504684;26;25101;-65
2024/04/10 08:07:29;;;;;;;13.18;3.45;;;;;;;;;;5461344;26;25045;-66
2024/04/10 08:09:55;;;;;;;11.73;2.70;;;;;;;;;;5471816;26;25049;-63
2024/04/10 08:12:21;;;;;;;13.13;2.70;;;;;;;;;;5494587;26;25049;-64
2024/04/10 08:14:51;;;;;;;12.38;2.60;;;;;;;;;;5451137;26;25040;-63
2024/04/10 08:17:17;;;;;;;18.38;3.10;;;;;;;;;;5469009;26;25047;-66
2024/04/10 08:19:46;;;;;;;11.77;2.20;;;;;;;;;;5457037;26;25054;-66
2024/04/10 08:22:12;;;;;;;14.02;2.38;;;;;;;;;;5452793;26;25053;-64
2024/04/10 08:24:38;;;;;;;13.50;2.33;;;;;;;;;;5465729;26;25054;-65
2024/04/10 08:27:05;;;;;;;14.13;2.83;;;;;;;;;;5458614;26;25045;-63
2024/04/10 08:29:31;;;;;;;10.90;2.25;;;;;;;;;;5466699;26;25112;-66
2024/04/10 08:31:58;;;;;;;9.60;2.30;;;;;;;;;;5455943;26;25061;-63
2024/04/10 08:34:25;;;;;;;8.73;2.47;;;;;;;;;;5459902;26;25154;-67
2024/04/10 08:36:51;;;;;;;12.07;2.00;;;;;;;;;;5465815;26;25114;-66
2024/04/10 08:39:17;;;;;;;9.07;2.05;;;;;;;;;;5458866;26;25130;-64
2024/04/10 08:41:43;;;;;;;10.23;2.63;;;;;;;;;;5464226;26;25039;-66
2024/04/10 08:44:11;;;;;;;9.35;2.17;;;;;;;;;;5473904;26;25062;-66
2024/04/10 08:46:38;;;;;;;13.55;2.58;;;;;;;;;;5467927;26;25118;-65
2024/04/10 08:49:04;;;;;;;15.43;2.33;;;;;;;;;;5472516;26;25034;-65
2024/04/10 08:51:34;;;;;;;10.38;2.70;;;;;;;;;;5469627;26;25052;-65
2024/04/10 08:54:00;;;;;;;12.15;2.33;;;;;;;;;;5455718;26;25043;-65
2024/04/10 08:56:26;;;;;;;15.52;2.10;;;;;;;;;;5446317;26;25065;-64
2024/04/10 08:58:54;;;;;;;8.75;2.13;;;;;;;;;;5464765;26;25049;-64
2024/04/10 09:01:27;;;;;;;6.97;1.90;;;;;;;;;;5459592;26;25060;-64
2024/04/10 09:03:53;;;;;;;5.55;1.98;;;;;;;;;;5447901;26;25099;-64
2024/04/10 09:06:20;;;;;;;6.85;1.90;;;;;;;;;;5455281;25;25042;-65
2024/04/10 09:08:56;;;;;;;9.20;1.90;;;;;;;;;;5448532;26;25185;-64
2024/04/10 09:11:25;;;;;;;12.27;2.35;;;;;;;;;;5456103;26;25061;-64
2024/04/10 09:14:07;;;;;;;7.55;2.38;;;;;;;;;;5455608;26;25055;-64
2024/04/10 09:16:33;;;;;;;14.52;2.55;;;;;;;;;;5454996;26;25065;-67
2024/04/10 09:19:12;;;;;;;14.25;2.38;;;;;;;;;;5454967;26;25066;-64
2024/04/10 09:21:42;;;;;;;10.40;2.53;;;;;;;;;;5468632;26;25056;-67
2024/04/10 09:24:09;;;;;;;11.07;2.28;;;;;;;;;;5458364;26;25034;-65
2024/04/10 09:26:39;;;;;;;7.68;1.63;;;;;;;;;;5458098;26;25122;-67
2024/04/10 09:29:09;;;;;;;5.57;1.60;;;;;;;;;;5422166;26;25069;-65
2024/04/10 09:31:36;;;;;;;5.80;1.60;;;;;;;;;;5451925;26;25043;-65
2024/04/10 09:34:02;;;;;;;9.57;1.88;;;;;;;;;;5452000;26;25057;-64
2024/04/10 09:36:33;;;;;;;10.13;2.10;;;;;;;;;;5470870;26;25044;-65
2024/04/10 09:39:06;;;;;;;7.32;1.90;;;;;;;;;;5447603;26;25051;-63
2024/04/10 09:41:34;;;;;;;8.00;1.80;;;;;;;;;;5459477;26;25062;-64
2024/04/10 09:44:00;;;;;;;9.20;2.00;;;;;;;;;;5472935;26;25162;-63
2024/04/10 09:46:34;;;;;;;6.68;1.95;;;;;;;;;;5457786;26;25024;-65
2024/04/10 09:49:07;;;;;;;9.63;1.65;;;;;;;;;;5471368;26;25055;-66
2024/04/10 09:51:33;;;;;;;6.53;1.67;;;;;;;;;;5457118;26;25048;-65
2024/04/10 09:54:00;;;;;;;12.02;2.00;;;;;;;;;;5444278;25;25086;-65
2024/04/10 09:56:26;;;;;;;7.47;2.55;;;;;;;;;;5455719;26;25044;-66
2024/04/10 09:58:53;;;;;;;11.02;1.92;;;;;;;;;;5453368;26;25070;-62
2024/04/10 10:01:25;;;;;;;12.05;2.55;;;;;;;;;;5453571;26;25057;-65
2024/04/10 10:03:58;;;;;;;7.45;2.38;;;;;;;;;;5457786;26;25064;-65
2024/04/10 10:06:23;;;;;;;;;;;;;;;;;;5463052;26;25049;-65
2024/04/10 10:08:51;;;;;;;5.85;1.67;;;;;;;;;;5450691;26;24048;-66
2024/04/10 10:11:20;;;;;;;10.13;1.77;;;;;;;;;;5465118;26;25056;-66
2024/04/10 10:13:56;;;;;;;10.35;1.85;;;;;;;;;;5470087;26;26188;-64
2024/04/10 10:16:26;;;;;;;10.57;1.63;;;;;;;;;;5452868;26;25055;-66
2024/04/10 10:18:55;;;;;;;7.72;1.55;;;;;;;;;;5451026;26;25051;-66
2024/04/10 10:21:22;;;;;;;9.38;1.73;;;;;;;;;;5454409;26;25060;-65
2024/04/10 10:23:55;;;;;;;6.97;1.52;;;;;;;;;;5501177;26;25109;-65
2024/04/10 10:26:21;;;;;;;11.18;1.92;;;;;;;;;;5468473;26;25057;-64
2024/04/10 10:28:47;;;;;;;5.20;1.58;;;;;;;;;;5461823;26;25057;-66
2024/04/10 10:31:19;;;;;;;8.68;1.38;;;;;;;;;;5453062;26;25064;-65
2024/04/10 10:33:47;;;;;;;10.05;1.60;;;;;;;;;;5503582;26;25045;-66
2024/04/10 10:36:14;;;;;;;7.60;1.95;;;;;;;;;;5457077;26;25049;-65
2024/04/10 10:38:40;;;;;;;7.97;1.65;;;;;;;;;;5459368;26;25046;-68
2024/04/10 10:41:10;;;;;;;8.25;1.73;;;;;;;;;;5459654;26;25052;-65
2024/04/10 10:43:37;;;;;;;10.93;1.50;;;;;;;;;;5450826;26;25050;-66
2024/04/10 10:46:06;;;;;;;5.60;1.38;;;;;;;;;;5456944;26;25069;-66
2024/04/10 10:48:32;;;;;;;5.45;1.52;;;;;;;;;;5460506;26;25052;-66
2024/04/10 10:50:59;;;;;;;6.35;1.52;;;;;;;;;;5467666;26;25106;-65
2024/04/10 10:53:26;;;;;;;5.68;1.52;;;;;;;;;;5462199;26;25071;-66
2024/04/10 10:55:53;;;;;;;4.78;1.63;;;;;;;;;;5455860;26;25102;-66
2024/04/10 10:58:19;;;;;;;6.03;1.38;;;;;;;;;;5464938;26;25042;-66
2024/04/10 11:00:45;;;;;;;10.68;1.85;;;;;;;;;;5461588;26;25146;-66
2024/04/10 11:03:12;;;;;;;5.40;1.58;;;;;;;;;;5474520;26;25044;-66
2024/04/10 11:05:38;;;;;;;3.30;1.30;;;;;;;;;;5462988;26;25046;-68
2024/04/10 11:08:04;;;;;;;8.00;1.60;;;;;;;;;;5465124;26;25058;-68
2024/04/10 11:10:31;;;;;;;4.18;1.40;;;;;;;;;;5464729;26;25065;-65
2024/04/10 11:13:04;;;;;;;5.97;1.85;;;;;;;;;;5462179;26;25062;-67
2024/04/10 11:15:38;;;;;;;11.60;1.40;;;;;;;;;;5463452;26;25050;-66
2024/04/10 11:18:05;;;;;;;6.95;1.30;;;;;;;;;;5483344;26;25046;-64
2024/04/10 11:20:32;;;;;;;11.43;1.58;;;;;;;;;;5460670;26;25049;-66
2024/04/10 11:23:07;;;;;;;3.60;1.35;;;;;;;;;;5456994;26;25044;-67
2024/04/10 11:25:37;;;;;;;6.32;1.17;;;;;;;;;;5465927;26;25064;-64
2024/04/10 11:28:03;;;;;;;3.85;1.50;;;;;;;;;;5445968;26;25064;-66
2024/04/10 11:30:30;;;;;;;8.57;1.25;;;;;;;;;;5450167;26;25099;-66
2024/04/10 11:32:57;;;;;;;5.40;1.30;;;;;;;;;;5456557;26;25103;-67
2024/04/10 11:35:23;;;;;;;3.67;1.30;;;;;;;;;;5456094;26;25063;-67
2024/04/10 11:37:50;;;;;;;4.72;1.10;;;;;;;;;;5449830;26;25031;-67
2024/04/10 11:40:19;;;;;;;5.78;2.58;;;;;;;;;;5474148;26;25168;-67
2024/04/10 11:42:45;;;;;;;5.00;1.45;;;;;;;;;;5470545;26;25080;-67
2024/04/10 11:45:11;;;;;;;4.22;1.50;;;;;;;;;;5458778;26;25051;-65
2024/04/10 11:47:38;;;;;;;5.80;1.48;;;;;;;;;;5460791;26;25122;-67
2024/04/10 11:50:05;;;;;;;9.02;1.58;;;;;;;;;;5497469;26;25110;-68
2024/04/10 11:52:34;;;;;;;5.72;1.85;;;;;;;;;;5459064;26;25033;-66
2024/04/10 11:55:00;;;;;;;8.32;2.22;;;;;;;;;;5457989;26;25053;-67
2024/04/10 11:57:26;;;;;;;7.30;1.67;;;;;;;;;;5458734;26;25065;-64
2024/04/10 11:59:52;;;;;;;4.18;1.50;;;;;;;;;;5461468;26;25052;-68
2024/04/10 12:02:19;;;;;;;2.92;1.15;;;;;;;;;;5457936;26;25134;-66
2024/04/10 12:04:45;;;;;;;8.93;1.75;;;;;;;;;;5463078;26;25088;-68
2024/04/10 12:07:11;;;;;;;6.78;1.67;;;;;;;;;;5454568;26;25058;-69
2024/04/10 12:09:39;;;;;;;4.93;1.40;;;;;;;;;;5460183;26;25054;-68
2024/04/10 12:12:06;;;;;;;6.80;1.30;;;;;;;;;;5471798;26;25065;-69
2024/04/10 12:14:32;;;;;;;4.07;1.38;;;;;;;;;;5467788;26;25049;-68
2024/04/10 12:16:58;;;;;;;8.00;1.70;;;;;;;;;;5469825;26;25044;-68
2024/04/10 12:19:26;;;;;;;3.22;1.42;;;;;;;;;;5446512;26;25088;-67
2024/04/10 12:21:53;;;;;;;3.78;1.27;;;;;;;;;;5454249;26;25048;-67
2024/04/10 12:24:19;;;;;;;5.45;1.20;;;;;;;;;;5449990;26;25056;-64
2024/04/10 12:26:45;;;;;;;6.90;1.95;;;;;;;;;;5459302;26;25122;-69
2024/04/10 12:29:11;;;;;;;6.00;1.33;;;;;;;;;;5465949;26;25096;-69
2024/04/10 12:31:37;;;;;;;4.15;1.45;;;;;;;;;;5456460;26;25059;-70
2024/04/10 12:34:08;;;;;;;5.97;1.80;;;;;;;;;;5465893;26;25059;-68
2024/04/10 12:39:20;;;;;;;8.63;2.08;;;;;;;;;;5456381;26;25053;-68
2024/04/10 12:41:49;;;;;;;5.78;1.55;;;;;;;;;;5453169;26;25073;-63
2024/04/10 12:44:19;;;;;;;5.45;1.35;;;;;;;;;;5457019;26;25067;-68
2024/04/10 12:46:51;;;;;;;10.57;2.00;;;;;;;;;;5468447;26;25118;-68
2024/04/10 12:49:17;;;;;;;10.25;2.38;;;;;;;;;;5455052;26;25050;-67
2024/04/10 12:51:43;;;;;;;5.55;1.65;;;;;;;;;;5468346;26;25028;-68
2024/04/10 12:54:10;;;;;;;7.03;1.73;;;;;;;;;;5469146;26;25099;-64
2024/04/10 12:56:36;;;;;;;4.05;1.58;;;;;;;;;;5460922;26;25053;-66
2024/04/10 12:59:02;;;;;;;8.25;1.90;;;;;;;;;;5456496;25;25088;-68
2024/04/10 13:01:28;;;;;;;9.48;2.55;;;;;;;;;;5474209;26;25049;-68
2024/04/10 13:03:54;;;;;;;8.50;2.13;;;;;;;;;;5469791;26;25069;-68
2024/04/10 13:06:24;;;;;;;6.18;2.20;;;;;;;;;;5448974;26;25101;-65
2024/04/10 13:08:54;;;;;;;5.25;1.80;;;;;;;;;;5453831;26;25064;-68
2024/04/10 13:11:20;;;;;;;5.70;1.98;;;;;;;;;;5451213;26;25056;-68
2024/04/10 13:13:47;;;;;;;8.35;2.13;;;;;;;;;;5471595;26;25060;-66
2024/04/10 13:16:13;;;;;;;6.65;2.15;;;;;;;;;;5450186;26;25053;-69
2024/04/10 13:18:41;;;;;;;5.43;1.60;;;;;;;;;;5457846;26;25052;-68
2024/04/10 13:21:08;;;;;;;5.47;1.88;;;;;;;;;;5460496;26;25094;-68
2024/04/10 13:23:34;;;;;;;8.25;1.83;;;;;;;;;;5468592;26;25057;-68
2024/04/10 13:26:01;;;;;;;11.98;2.13;;;;;;;;;;5462963;26;25098;-67
2024/04/10 13:28:28;;;;;;;5.70;2.15;;;;;;;;;;5457204;26;25040;-68
2024/04/10 13:31:04;;;;;;;7.63;1.73;;;;;;;;;;5459138;26;25051;-67
2024/04/10 13:33:30;;;;;;;10.40;2.33;;;;;;;;;;5466847;26;25070;-66
2024/04/10 13:36:08;;;;;;;10.38;2.47;;;;;;;;;;5466217;26;25140;-65
2024/04/10 13:38:44;;;;;;;4.78;1.65;;;;;;;;;;5452826;26;25066;-65
2024/04/10 13:41:10;;;;;;;9.32;2.25;;;;;;;;;;5455045;26;25053;-64
2024/04/10 13:43:39;;;;;;;6.55;2.08;;;;;;;;;;5448374;26;25023;-65
2024/04/10 13:46:12;;;;;;;6.20;1.42;;;;;;;;;;5471724;26;25038;-67
2024/04/10 13:48:44;;;;;;;8.48;2.53;;;;;;;;;;5475100;25;25055;-68
2024/04/10 13:51:16;;;;;;;7.55;1.90;;;;;;;;;;5465902;26;25045;-68
2024/04/10 13:53:42;;;;;;;6.30;1.80;;;;;;;;;;5470684;26;25046;-68
2024/04/10 13:56:09;;;;;;;6.13;2.10;;;;;;;;;;5460464;26;25045;-66
2024/04/10 13:58:36;;;;;;;5.57;2.20;;;;;;;;;;5447135;26;25045;-67
2024/04/10 14:01:15;;;;;;;9.20;2.10;;;;;;;;;;5459340;26;25084;-68
2024/04/10 14:03:42;;;;;;;9.57;2.80;;;;;;;;;;5454855;26;25042;-67
2024/04/10 14:06:08;;;;;;;11.73;2.05;;;;;;;;;;5451177;26;25069;-65
2024/04/10 14:08:35;;;;;;;12.30;2.75;;;;;;;;;;5467878;26;25033;-66
2024/04/10 14:11:01;;;;;;;8.95;2.15;;;;;;;;;;5450891;26;25044;-66
2024/04/10 14:13:28;;;;;;;5.82;1.77;;;;;;;;;;5464991;26;25083;-70
2024/04/10 14:15:55;;;;;;;5.63;2.75;;;;;;;;;;5466032;26;25102;-66
2024/04/10 14:18:21;;;;;;;5.88;1.80;;;;;;;;;;5456090;26;25064;-66
2024/04/10 14:20:47;;;;;;;11.70;2.05;;;;;;;;;;5451107;26;25116;-68
2024/04/10 14:23:13;;;;;;;4.32;1.77;;;;;;;;;;5451263;26;25051;-68
2024/04/10 14:25:40;;;;;;;6.68;1.85;;;;;;;;;;5451657;26;25052;-67
2024/04/10 14:28:06;;;;;;;11.77;2.78;;;;;;;;;;5475055;26;25029;-68
2024/04/10 14:30:33;;;;;;;11.60;2.10;;;;;;;;;;5455367;26;25056;-66
2024/04/10 14:33:00;;;;;;;13.02;2.20;;;;;;;;;;5470181;26;25067;-65
2024/04/10 14:35:27;;;;;;;4.00;1.50;;;;;;;;;;5455140;26;25056;-66
2024/04/10 14:37:52;;;;;;;15.30;1.92;;;;;;;;;;5451820;26;25108;-64